sensor_id;sensor_type;location;lat;lon;timestamp;temperature;humidity
65836;SHT30;52595;51.608;7.216;2023-02-28T00:00:08;-1.07;87.93
65836;SHT30;52595;51.608;7.216;2023-02-28T00:02:42;-1.16;87.71
65836;SHT30;52595;51.608;7.216;2023-02-28T00:05:10;-1.10;87.83
65836;SHT30;52595;51.608;7.216;2023-02-28T00:07:36;-0.97;87.40
65836;SHT30;52595;51.608;7.216;2023-02-28T00:10:03;-0.96;86.67
65836;SHT30;52595;51.608;7.216;2023-02-28T00:12:29;-0.97;86.83
65836;SHT30;52595;51.608;7.216;2023-02-28T00:14:54;-0.96;86.68
65836;SHT30;52595;51.608;7.216;2023-02-28T00:17:20;-0.95;86.30
65836;SHT30;52595;51.608;7.216;2023-02-28T00:19:50;-0.85;85.88
65836;SHT30;52595;51.608;7.216;2023-02-28T00:22:18;-0.85;85.73
65836;SHT30;52595;51.608;7.216;2023-02-28T00:24:44;-0.93;85.58
65836;SHT30;52595;51.608;7.216;2023-02-28T00:27:10;-0.93;85.80
65836;SHT30;52595;51.608;7.216;2023-02-28T00:29:36;-0.81;85.06
65836;SHT30;52595;51.608;7.216;2023-02-28T00:32:02;-0.82;84.97
65836;SHT30;52595;51.608;7.216;2023-02-28T00:34:27;-0.92;85.26
65836;SHT30;52595;51.608;7.216;2023-02-28T00:36:53;-0.99;85.33
65836;SHT30;52595;51.608;7.216;2023-02-28T00:39:19;-1.03;85.51
65836;SHT30;52595;51.608;7.216;2023-02-28T00:41:45;-1.12;85.67
65836;SHT30;52595;51.608;7.216;2023-02-28T00:44:10;-1.10;85.59
65836;SHT30;52595;51.608;7.216;2023-02-28T00:46:35;-1.12;84.98
65836;SHT30;52595;51.608;7.216;2023-02-28T00:49:01;-1.13;85.31
65836;SHT30;52595;51.608;7.216;2023-02-28T00:51:26;-1.24;85.22
65836;SHT30;52595;51.608;7.216;2023-02-28T00:53:52;-1.27;85.49
65836;SHT30;52595;51.608;7.216;2023-02-28T00:56:17;-1.37;85.39
65836;SHT30;52595;51.608;7.216;2023-02-28T00:58:42;-1.51;86.08
65836;SHT30;52595;51.608;7.216;2023-02-28T01:01:08;-1.57;86.36
65836;SHT30;52595;51.608;7.216;2023-02-28T01:03:33;-1.61;86.39
65836;SHT30;52595;51.608;7.216;2023-02-28T01:05:59;-1.54;86.02
65836;SHT30;52595;51.608;7.216;2023-02-28T01:08:24;-1.57;86.09
65836;SHT30;52595;51.608;7.216;2023-02-28T01:10:51;-1.51;86.35
65836;SHT30;52595;51.608;7.216;2023-02-28T01:13:17;-1.66;85.79
65836;SHT30;52595;51.608;7.216;2023-02-28T01:15:50;-1.71;86.51
65836;SHT30;52595;51.608;7.216;2023-02-28T01:18:16;-1.74;86.49
65836;SHT30;52595;51.608;7.216;2023-02-28T01:20:41;-1.79;87.03
65836;SHT30;52595;51.608;7.216;2023-02-28T01:23:07;-1.88;87.14
65836;SHT30;52595;51.608;7.216;2023-02-28T01:25:35;-1.81;86.75
65836;SHT30;52595;51.608;7.216;2023-02-28T01:28:01;-1.82;86.36
65836;SHT30;52595;51.608;7.216;2023-02-28T01:30:26;-1.95;86.42
65836;SHT30;52595;51.608;7.216;2023-02-28T01:32:52;-2.05;86.86
65836;SHT30;52595;51.608;7.216;2023-02-28T01:35:18;-2.13;86.74
65836;SHT30;52595;51.608;7.216;2023-02-28T01:37:44;-2.15;87.44
65836;SHT30;52595;51.608;7.216;2023-02-28T01:40:10;-2.21;87.65
65836;SHT30;52595;51.608;7.216;2023-02-28T01:42:36;-2.25;87.23
65836;SHT30;52595;51.608;7.216;2023-02-28T01:47:45;-2.41;88.09
65836;SHT30;52595;51.608;7.216;2023-02-28T01:50:17;-2.46;88.55
65836;SHT30;52595;51.608;7.216;2023-02-28T01:52:45;-2.48;88.58
65836;SHT30;52595;51.608;7.216;2023-02-28T01:55:14;-2.39;88.87
65836;SHT30;52595;51.608;7.216;2023-02-28T01:57:46;-2.50;88.73
65836;SHT30;52595;51.608;7.216;2023-02-28T02:00:16;-2.53;89.06
65836;SHT30;52595;51.608;7.216;2023-02-28T02:02:45;-2.60;89.13
65836;SHT30;52595;51.608;7.216;2023-02-28T02:05:18;-2.70;89.19
65836;SHT30;52595;51.608;7.216;2023-02-28T02:07:45;-2.76;89.58
65836;SHT30;52595;51.608;7.216;2023-02-28T02:10:14;-2.83;89.58
65836;SHT30;52595;51.608;7.216;2023-02-28T02:29:30;-2.79;89.49
65836;SHT30;52595;51.608;7.216;2023-02-28T02:40:18;-2.56;87.50
65836;SHT30;52595;51.608;7.216;2023-02-28T02:42:52;-2.59;87.27
65836;SHT30;52595;51.608;7.216;2023-02-28T02:45:32;-2.56;87.22
65836;SHT30;52595;51.608;7.216;2023-02-28T02:48:05;-2.52;86.49
65836;SHT30;52595;51.608;7.216;2023-02-28T02:50:59;-2.50;86.05
65836;SHT30;52595;51.608;7.216;2023-02-28T02:53:37;-2.45;85.79
65836;SHT30;52595;51.608;7.216;2023-02-28T02:56:05;-2.32;85.04
65836;SHT30;52595;51.608;7.216;2023-02-28T02:58:36;-2.32;84.70
65836;SHT30;52595;51.608;7.216;2023-02-28T03:01:08;-2.45;84.47
65836;SHT30;52595;51.608;7.216;2023-02-28T03:03:35;-2.52;85.22
65836;SHT30;52595;51.608;7.216;2023-02-28T03:06:02;-2.43;84.83
65836;SHT30;52595;51.608;7.216;2023-02-28T03:08:30;-2.46;84.93
65836;SHT30;52595;51.608;7.216;2023-02-28T03:11:09;-2.62;84.93
65836;SHT30;52595;51.608;7.216;2023-02-28T03:17:03;-2.52;85.13
65836;SHT30;52595;51.608;7.216;2023-02-28T03:31:03;-2.56;84.17
65836;SHT30;52595;51.608;7.216;2023-02-28T03:33:41;-2.46;83.96
65836;SHT30;52595;51.608;7.216;2023-02-28T03:36:17;-2.54;84.01
65836;SHT30;52595;51.608;7.216;2023-02-28T03:38:55;-2.54;84.15
65836;SHT30;52595;51.608;7.216;2023-02-28T03:41:23;-2.50;83.82
65836;SHT30;52595;51.608;7.216;2023-02-28T03:43:58;-2.60;83.92
65836;SHT30;52595;51.608;7.216;2023-02-28T03:46:27;-2.60;83.92
65836;SHT30;52595;51.608;7.216;2023-02-28T03:49:16;-2.60;83.88
65836;SHT30;52595;51.608;7.216;2023-02-28T03:51:42;-2.52;83.98
65836;SHT30;52595;51.608;7.216;2023-02-28T03:54:13;-2.64;84.08
65836;SHT30;52595;51.608;7.216;2023-02-28T03:56:44;-2.76;84.57
65836;SHT30;52595;51.608;7.216;2023-02-28T03:59:17;-2.83;85.26
65836;SHT30;52595;51.608;7.216;2023-02-28T04:01:50;-2.74;85.29
65836;SHT30;52595;51.608;7.216;2023-02-28T04:04:17;-2.74;84.93
65836;SHT30;52595;51.608;7.216;2023-02-28T04:06:43;-2.86;85.42
65836;SHT30;52595;51.608;7.216;2023-02-28T04:09:11;-2.91;85.83
65836;SHT30;52595;51.608;7.216;2023-02-28T04:11:55;-2.86;85.49
65836;SHT30;52595;51.608;7.216;2023-02-28T04:14:21;-2.76;85.30
65836;SHT30;52595;51.608;7.216;2023-02-28T04:16:48;-2.74;85.40
65836;SHT30;52595;51.608;7.216;2023-02-28T04:19:14;-2.79;84.75
65836;SHT30;52595;51.608;7.216;2023-02-28T04:21:45;-2.83;84.86
65836;SHT30;52595;51.608;7.216;2023-02-28T04:24:22;-2.91;85.18
65836;SHT30;52595;51.608;7.216;2023-02-28T04:26:50;-2.88;85.71
65836;SHT30;52595;51.608;7.216;2023-02-28T04:29:22;-2.79;85.85
65836;SHT30;52595;51.608;7.216;2023-02-28T04:31:48;-2.79;85.73
65836;SHT30;52595;51.608;7.216;2023-02-28T04:34:14;-2.67;85.28
65836;SHT30;52595;51.608;7.216;2023-02-28T04:36:39;-2.67;85.23
65836;SHT30;52595;51.608;7.216;2023-02-28T04:39:05;-2.66;85.22
65836;SHT30;52595;51.608;7.216;2023-02-28T04:41:30;-2.69;85.37
65836;SHT30;52595;51.608;7.216;2023-02-28T04:43:56;-2.69;85.53
65836;SHT30;52595;51.608;7.216;2023-02-28T04:46:22;-2.77;85.57
65836;SHT30;52595;51.608;7.216;2023-02-28T04:48:48;-2.72;85.47
65836;SHT30;52595;51.608;7.216;2023-02-28T04:51:16;-2.66;85.00
65836;SHT30;52595;51.608;7.216;2023-02-28T04:53:42;-2.64;85.00
65836;SHT30;52595;51.608;7.216;2023-02-28T04:56:11;-2.73;85.04
65836;SHT30;52595;51.608;7.216;2023-02-28T04:58:37;-2.72;85.32
65836;SHT30;52595;51.608;7.216;2023-02-28T05:01:15;-2.73;85.22
65836;SHT30;52595;51.608;7.216;2023-02-28T05:03:42;-2.88;85.55
65836;SHT30;52595;51.608;7.216;2023-02-28T05:06:08;-2.88;86.36
65836;SHT30;52595;51.608;7.216;2023-02-28T05:08:34;-2.86;86.49
65836;SHT30;52595;51.608;7.216;2023-02-28T05:11:00;-2.83;86.33
65836;SHT30;52595;51.608;7.216;2023-02-28T05:13:27;-2.83;86.24
65836;SHT30;52595;51.608;7.216;2023-02-28T05:15:53;-2.73;86.43
65836;SHT30;52595;51.608;7.216;2023-02-28T05:18:18;-2.72;86.31
65836;SHT30;52595;51.608;7.216;2023-02-28T05:20:44;-2.70;86.47
65836;SHT30;52595;51.608;7.216;2023-02-28T05:23:13;-2.83;86.39
65836;SHT30;52595;51.608;7.216;2023-02-28T05:25:40;-2.80;86.58
65836;SHT30;52595;51.608;7.216;2023-02-28T05:28:06;-2.83;86.57
65836;SHT30;52595;51.608;7.216;2023-02-28T05:30:32;-2.87;86.49
65836;SHT30;52595;51.608;7.216;2023-02-28T05:32:58;-2.91;86.72
65836;SHT30;52595;51.608;7.216;2023-02-28T05:35:24;-2.96;86.67
65836;SHT30;52595;51.608;7.216;2023-02-28T05:37:49;-2.97;86.91
65836;SHT30;52595;51.608;7.216;2023-02-28T05:40:15;-3.03;86.90
65836;SHT30;52595;51.608;7.216;2023-02-28T05:42:41;-3.07;87.51
65836;SHT30;52595;51.608;7.216;2023-02-28T05:45:07;-3.07;87.25
65836;SHT30;52595;51.608;7.216;2023-02-28T05:47:33;-3.17;87.36
65836;SHT30;52595;51.608;7.216;2023-02-28T05:49:59;-3.18;87.60
65836;SHT30;52595;51.608;7.216;2023-02-28T05:52:25;-3.19;87.57
65836;SHT30;52595;51.608;7.216;2023-02-28T05:54:51;-3.24;87.79
65836;SHT30;52595;51.608;7.216;2023-02-28T05:57:16;-3.22;87.83
65836;SHT30;52595;51.608;7.216;2023-02-28T05:59:41;-3.19;88.05
65836;SHT30;52595;51.608;7.216;2023-02-28T06:02:16;-3.24;88.04
65836;SHT30;52595;51.608;7.216;2023-02-28T06:04:43;-3.24;88.07
65836;SHT30;52595;51.608;7.216;2023-02-28T06:07:09;-3.22;87.99
65836;SHT30;52595;51.608;7.216;2023-02-28T06:09:35;-3.18;88.11
65836;SHT30;52595;51.608;7.216;2023-02-28T06:12:02;-3.12;87.68
65836;SHT30;52595;51.608;7.216;2023-02-28T06:14:31;-3.14;87.59
65836;SHT30;52595;51.608;7.216;2023-02-28T06:16:58;-3.17;87.65
65836;SHT30;52595;51.608;7.216;2023-02-28T06:19:23;-3.24;87.80
65836;SHT30;52595;51.608;7.216;2023-02-28T06:21:53;-3.08;87.71
65836;SHT30;52595;51.608;7.216;2023-02-28T06:24:22;-3.05;87.65
65836;SHT30;52595;51.608;7.216;2023-02-28T06:26:48;-3.03;87.52
65836;SHT30;52595;51.608;7.216;2023-02-28T06:29:14;-3.07;87.38
65836;SHT30;52595;51.608;7.216;2023-02-28T06:31:44;-3.03;87.54
65836;SHT30;52595;51.608;7.216;2023-02-28T06:34:10;-3.00;87.34
65836;SHT30;52595;51.608;7.216;2023-02-28T06:36:39;-2.90;86.95
65836;SHT30;52595;51.608;7.216;2023-02-28T06:39:05;-2.88;86.80
65836;SHT30;52595;51.608;7.216;2023-02-28T06:41:31;-2.90;86.58
65836;SHT30;52595;51.608;7.216;2023-02-28T06:43:56;-2.93;86.78
65836;SHT30;52595;51.608;7.216;2023-02-28T06:46:22;-2.91;86.52
65836;SHT30;52595;51.608;7.216;2023-02-28T06:48:48;-2.96;86.64
65836;SHT30;52595;51.608;7.216;2023-02-28T06:51:16;-2.91;86.73
65836;SHT30;52595;51.608;7.216;2023-02-28T06:53:42;-2.93;86.73
65836;SHT30;52595;51.608;7.216;2023-02-28T06:56:13;-2.88;86.38
65836;SHT30;52595;51.608;7.216;2023-02-28T06:58:39;-2.80;86.23
65836;SHT30;52595;51.608;7.216;2023-02-28T07:01:05;-2.70;85.40
65836;SHT30;52595;51.608;7.216;2023-02-28T07:03:31;-2.67;85.50
65836;SHT30;52595;51.608;7.216;2023-02-28T07:05:57;-2.67;85.21
65836;SHT30;52595;51.608;7.216;2023-02-28T07:08:23;-2.63;85.11
65836;SHT30;52595;51.608;7.216;2023-02-28T07:10:54;-2.46;84.59
65836;SHT30;52595;51.608;7.216;2023-02-28T07:13:20;-2.26;83.38
65836;SHT30;52595;51.608;7.216;2023-02-28T07:15:56;-2.15;83.26
65836;SHT30;52595;51.608;7.216;2023-02-28T07:18:22;-2.19;82.92
65836;SHT30;52595;51.608;7.216;2023-02-28T07:20:47;-2.25;83.29
65836;SHT30;52595;51.608;7.216;2023-02-28T07:23:13;-2.15;83.56
65836;SHT30;52595;51.608;7.216;2023-02-28T07:25:38;-2.09;82.97
65836;SHT30;52595;51.608;7.216;2023-02-28T07:28:04;-2.01;82.82
65836;SHT30;52595;51.608;7.216;2023-02-28T07:30:30;-1.92;82.46
65836;SHT30;52595;51.608;7.216;2023-02-28T07:32:55;-1.82;82.23
65836;SHT30;52595;51.608;7.216;2023-02-28T07:35:22;-1.75;81.82
65836;SHT30;52595;51.608;7.216;2023-02-28T07:37:48;-1.63;81.15
65836;SHT30;52595;51.608;7.216;2023-02-28T07:40:14;-1.58;80.63
65836;SHT30;52595;51.608;7.216;2023-02-28T07:42:41;-1.50;80.67
65836;SHT30;52595;51.608;7.216;2023-02-28T07:45:07;-1.42;80.26
65836;SHT30;52595;51.608;7.216;2023-02-28T07:47:33;-1.32;79.92
65836;SHT30;52595;51.608;7.216;2023-02-28T07:49:58;-1.20;79.43
65836;SHT30;52595;51.608;7.216;2023-02-28T07:52:24;-1.10;79.27
65836;SHT30;52595;51.608;7.216;2023-02-28T07:54:50;-1.00;79.09
65836;SHT30;52595;51.608;7.216;2023-02-28T07:57:16;-0.92;78.82
65836;SHT30;52595;51.608;7.216;2023-02-28T07:59:42;-0.83;78.30
65836;SHT30;52595;51.608;7.216;2023-02-28T08:02:13;-0.73;77.33
65836;SHT30;52595;51.608;7.216;2023-02-28T08:04:39;-0.73;77.44
65836;SHT30;52595;51.608;7.216;2023-02-28T08:07:05;-0.66;77.28
65836;SHT30;52595;51.608;7.216;2023-02-28T08:09:30;-0.59;77.20
65836;SHT30;52595;51.608;7.216;2023-02-28T08:11:56;-0.48;76.57
65836;SHT30;52595;51.608;7.216;2023-02-28T08:14:21;-0.45;76.42
65836;SHT30;52595;51.608;7.216;2023-02-28T08:16:46;-0.41;76.80
65836;SHT30;52595;51.608;7.216;2023-02-28T08:19:12;-0.37;76.61
65836;SHT30;52595;51.608;7.216;2023-02-28T08:21:37;-0.34;76.48
65836;SHT30;52595;51.608;7.216;2023-02-28T08:24:03;-0.22;75.87
65836;SHT30;52595;51.608;7.216;2023-02-28T08:26:28;-0.21;75.52
65836;SHT30;52595;51.608;7.216;2023-02-28T08:28:53;-0.11;75.30
65836;SHT30;52595;51.608;7.216;2023-02-28T08:31:19;-0.03;74.77
65836;SHT30;52595;51.608;7.216;2023-02-28T08:33:45;0.02;75.28
65836;SHT30;52595;51.608;7.216;2023-02-28T08:36:11;0.09;74.19
65836;SHT30;52595;51.608;7.216;2023-02-28T08:38:37;0.09;74.53
65836;SHT30;52595;51.608;7.216;2023-02-28T08:41:04;0.11;74.48
65836;SHT30;52595;51.608;7.216;2023-02-28T08:43:32;0.14;74.70
65836;SHT30;52595;51.608;7.216;2023-02-28T08:45:59;0.21;73.45
65836;SHT30;52595;51.608;7.216;2023-02-28T08:48:25;0.30;73.59
65836;SHT30;52595;51.608;7.216;2023-02-28T08:51:02;0.40;73.65
65836;SHT30;52595;51.608;7.216;2023-02-28T08:53:28;0.41;73.26
65836;SHT30;52595;51.608;7.216;2023-02-28T08:56:19;0.47;73.53
65836;SHT30;52595;51.608;7.216;2023-02-28T08:58:46;0.56;73.60
65836;SHT30;52595;51.608;7.216;2023-02-28T09:01:17;0.61;73.22
65836;SHT30;52595;51.608;7.216;2023-02-28T09:03:43;0.68;73.38
65836;SHT30;52595;51.608;7.216;2023-02-28T09:06:10;0.79;72.35
65836;SHT30;52595;51.608;7.216;2023-02-28T09:08:36;0.88;70.27
65836;SHT30;52595;51.608;7.216;2023-02-28T09:11:01;1.08;70.42
65836;SHT30;52595;51.608;7.216;2023-02-28T09:13:28;1.21;70.67
65836;SHT30;52595;51.608;7.216;2023-02-28T09:15:54;1.36;69.38
65836;SHT30;52595;51.608;7.216;2023-02-28T09:18:20;1.39;68.81
65836;SHT30;52595;51.608;7.216;2023-02-28T09:20:45;1.53;66.82
65836;SHT30;52595;51.608;7.216;2023-02-28T09:23:12;1.63;66.05
65836;SHT30;52595;51.608;7.216;2023-02-28T09:25:45;1.67;66.26
65836;SHT30;52595;51.608;7.216;2023-02-28T09:28:10;1.71;66.24
65836;SHT30;52595;51.608;7.216;2023-02-28T09:30:36;1.76;66.45
65836;SHT30;52595;51.608;7.216;2023-02-28T09:33:02;1.88;65.18
65836;SHT30;52595;51.608;7.216;2023-02-28T09:35:28;1.97;64.57
65836;SHT30;52595;51.608;7.216;2023-02-28T09:37:56;2.01;65.04
65836;SHT30;52595;51.608;7.216;2023-02-28T09:40:25;2.13;63.36
65836;SHT30;52595;51.608;7.216;2023-02-28T09:42:53;2.22;62.43
65836;SHT30;52595;51.608;7.216;2023-02-28T09:45:35;2.34;63.15
65836;SHT30;52595;51.608;7.216;2023-02-28T09:48:09;2.42;62.24
65836;SHT30;52595;51.608;7.216;2023-02-28T09:50:40;2.44;62.37
65836;SHT30;52595;51.608;7.216;2023-02-28T09:53:28;2.63;61.08
65836;SHT30;52595;51.608;7.216;2023-02-28T09:56:04;2.71;60.99
65836;SHT30;52595;51.608;7.216;2023-02-28T10:06:49;3.03;61.09
65836;SHT30;52595;51.608;7.216;2023-02-28T10:09:24;3.03;60.32
65836;SHT30;52595;51.608;7.216;2023-02-28T10:11:52;3.12;60.31
65836;SHT30;52595;51.608;7.216;2023-02-28T10:14:22;3.27;59.61
65836;SHT30;52595;51.608;7.216;2023-02-28T10:16:55;3.57;58.69
65836;SHT30;52595;51.608;7.216;2023-02-28T10:19:40;3.85;57.17
65836;SHT30;52595;51.608;7.216;2023-02-28T10:24:52;4.77;54.66
65836;SHT30;52595;51.608;7.216;2023-02-28T10:27:18;4.83;52.76
65836;SHT30;52595;51.608;7.216;2023-02-28T10:29:59;4.66;52.27
65836;SHT30;52595;51.608;7.216;2023-02-28T10:37:41;4.88;52.00
65836;SHT30;52595;51.608;7.216;2023-02-28T10:40:26;4.88;51.81
65836;SHT30;52595;51.608;7.216;2023-02-28T10:45:24;5.59;51.36
65836;SHT30;52595;51.608;7.216;2023-02-28T10:48:01;6.06;50.32
65836;SHT30;52595;51.608;7.216;2023-02-28T10:56:19;5.21;50.02
65836;SHT30;52595;51.608;7.216;2023-02-28T10:58:59;5.23;49.88
65836;SHT30;52595;51.608;7.216;2023-02-28T11:01:38;5.10;48.83
65836;SHT30;52595;51.608;7.216;2023-02-28T11:06:59;5.20;49.62
65836;SHT30;52595;51.608;7.216;2023-02-28T11:09:34;5.31;50.05
65836;SHT30;52595;51.608;7.216;2023-02-28T11:12:06;6.24;48.31
65836;SHT30;52595;51.608;7.216;2023-02-28T11:14:51;7.28;46.23
65836;SHT30;52595;51.608;7.216;2023-02-28T11:17:28;7.69;44.59
65836;SHT30;52595;51.608;7.216;2023-02-28T11:20:05;7.80;43.95
65836;SHT30;52595;51.608;7.216;2023-02-28T11:22:38;8.48;43.36
65836;SHT30;52595;51.608;7.216;2023-02-28T11:25:31;8.59;42.52
65836;SHT30;52595;51.608;7.216;2023-02-28T11:28:03;8.55;42.44
65836;SHT30;52595;51.608;7.216;2023-02-28T11:32:56;9.53;41.61
65836;SHT30;52595;51.608;7.216;2023-02-28T11:35:32;9.99;41.24
65836;SHT30;52595;51.608;7.216;2023-02-28T11:38:00;10.84;40.04
65836;SHT30;52595;51.608;7.216;2023-02-28T11:46:08;12.06;38.04
65836;SHT30;52595;51.608;7.216;2023-02-28T11:48:48;12.67;36.25
65836;SHT30;52595;51.608;7.216;2023-02-28T11:51:42;12.84;36.76
65836;SHT30;52595;51.608;7.216;2023-02-28T11:56:47;12.12;38.27
65836;SHT30;52595;51.608;7.216;2023-02-28T12:10:36;13.03;36.33
65836;SHT30;52595;51.608;7.216;2023-02-28T12:13:18;13.38;35.92
65836;SHT30;52595;51.608;7.216;2023-02-28T12:16:00;13.75;35.62
65836;SHT30;52595;51.608;7.216;2023-02-28T12:24:22;13.90;35.45
65836;SHT30;52595;51.608;7.216;2023-02-28T12:26:54;13.75;35.49
65836;SHT30;52595;51.608;7.216;2023-02-28T12:29:30;14.01;35.43
65836;SHT30;52595;51.608;7.216;2023-02-28T12:32:18;14.36;35.96
65836;SHT30;52595;51.608;7.216;2023-02-28T12:34:51;14.05;36.00
65836;SHT30;52595;51.608;7.216;2023-02-28T12:37:41;13.06;38.19
65836;SHT30;52595;51.608;7.216;2023-02-28T12:40:14;13.44;36.86
65836;SHT30;52595;51.608;7.216;2023-02-28T12:42:51;14.28;35.34
65836;SHT30;52595;51.608;7.216;2023-02-28T12:45:20;14.29;35.71
65836;SHT30;52595;51.608;7.216;2023-02-28T12:47:50;13.79;36.39
65836;SHT30;52595;51.608;7.216;2023-02-28T12:50:18;11.84;37.76
65836;SHT30;52595;51.608;7.216;2023-02-28T12:55:27;9.27;43.76
65836;SHT30;52595;51.608;7.216;2023-02-28T12:58:11;8.96;45.05
65836;SHT30;52595;51.608;7.216;2023-02-28T13:01:02;8.42;46.31
65836;SHT30;52595;51.608;7.216;2023-02-28T13:03:48;10.05;43.85
65836;SHT30;52595;51.608;7.216;2023-02-28T13:06:33;10.48;43.78
65836;SHT30;52595;51.608;7.216;2023-02-28T13:09:10;12.14;39.91
65836;SHT30;52595;51.608;7.216;2023-02-28T13:11:45;12.18;40.43
65836;SHT30;52595;51.608;7.216;2023-02-28T13:14:26;12.33;38.75
65836;SHT30;52595;51.608;7.216;2023-02-28T13:19:46;12.69;38.67
65836;SHT30;52595;51.608;7.216;2023-02-28T13:24:56;13.69;36.78
65836;SHT30;52595;51.608;7.216;2023-02-28T13:27:32;13.90;36.18
65836;SHT30;52595;51.608;7.216;2023-02-28T13:29:58;14.59;34.85
65836;SHT30;52595;51.608;7.216;2023-02-28T13:32:34;14.94;34.85
65836;SHT30;52595;51.608;7.216;2023-02-28T13:40:06;15.25;34.30
65836;SHT30;52595;51.608;7.216;2023-02-28T13:42:48;15.57;33.47
65836;SHT30;52595;51.608;7.216;2023-02-28T13:45:22;14.67;34.40
65836;SHT30;52595;51.608;7.216;2023-02-28T13:47:58;15.66;34.75
65836;SHT30;52595;51.608;7.216;2023-02-28T13:50:37;15.72;34.63
65836;SHT30;52595;51.608;7.216;2023-02-28T13:58:55;14.83;36.28
65836;SHT30;52595;51.608;7.216;2023-02-28T14:01:53;14.04;36.94
65836;SHT30;52595;51.608;7.216;2023-02-28T14:07:01;11.43;40.59
65836;SHT30;52595;51.608;7.216;2023-02-28T14:09:35;11.31;42.03
65836;SHT30;52595;51.608;7.216;2023-02-28T14:18:19;15.61;35.00
65836;SHT30;52595;51.608;7.216;2023-02-28T14:20:47;15.65;34.90
65836;SHT30;52595;51.608;7.216;2023-02-28T14:26:18;15.77;35.20
65836;SHT30;52595;51.608;7.216;2023-02-28T14:28:54;15.77;34.61
65836;SHT30;52595;51.608;7.216;2023-02-28T14:32:10;16.46;33.92
65836;SHT30;52595;51.608;7.216;2023-02-28T14:37:03;15.93;33.56
65836;SHT30;52595;51.608;7.216;2023-02-28T14:39:29;15.96;33.58
65836;SHT30;52595;51.608;7.216;2023-02-28T14:41:56;14.49;36.05
65836;SHT30;52595;51.608;7.216;2023-02-28T14:44:27;15.23;34.80
65836;SHT30;52595;51.608;7.216;2023-02-28T14:46:57;14.64;35.11
65836;SHT30;52595;51.608;7.216;2023-02-28T14:49:28;15.07;35.06
65836;SHT30;52595;51.608;7.216;2023-02-28T14:54:36;16.33;33.50
65836;SHT30;52595;51.608;7.216;2023-02-28T14:57:02;15.92;34.02
65836;SHT30;52595;51.608;7.216;2023-02-28T14:59:31;15.54;34.52
65836;SHT30;52595;51.608;7.216;2023-02-28T15:02:17;14.94;35.51
65836;SHT30;52595;51.608;7.216;2023-02-28T15:04:43;15.07;35.63
65836;SHT30;52595;51.608;7.216;2023-02-28T15:07:15;14.70;35.42
65836;SHT30;52595;51.608;7.216;2023-02-28T15:09:41;14.85;35.67
65836;SHT30;52595;51.608;7.216;2023-02-28T15:12:07;13.97;36.39
65836;SHT30;52595;51.608;7.216;2023-02-28T15:14:34;13.69;37.58
65836;SHT30;52595;51.608;7.216;2023-02-28T15:17:07;15.08;35.76
65836;SHT30;52595;51.608;7.216;2023-02-28T15:19:36;14.50;36.12
65836;SHT30;52595;51.608;7.216;2023-02-28T15:22:10;14.25;36.22
65836;SHT30;52595;51.608;7.216;2023-02-28T15:24:41;15.00;35.59
65836;SHT30;52595;51.608;7.216;2023-02-28T15:27:12;14.05;37.59
65836;SHT30;52595;51.608;7.216;2023-02-28T15:30:06;13.69;37.37
65836;SHT30;52595;51.608;7.216;2023-02-28T15:32:37;13.08;38.73
65836;SHT30;52595;51.608;7.216;2023-02-28T15:38:14;13.00;38.59
65836;SHT30;52595;51.608;7.216;2023-02-28T15:40:51;13.15;38.05
65836;SHT30;52595;51.608;7.216;2023-02-28T15:43:30;13.08;37.76
65836;SHT30;52595;51.608;7.216;2023-02-28T15:48:38;12.17;39.44
65836;SHT30;52595;51.608;7.216;2023-02-28T15:51:30;12.60;39.17
65836;SHT30;52595;51.608;7.216;2023-02-28T15:53:59;11.99;40.45
65836;SHT30;52595;51.608;7.216;2023-02-28T15:56:31;12.69;39.30
65836;SHT30;52595;51.608;7.216;2023-02-28T15:59:00;12.67;39.47
65836;SHT30;52595;51.608;7.216;2023-02-28T16:01:31;12.53;38.90
65836;SHT30;52595;51.608;7.216;2023-02-28T16:04:01;11.91;40.49
65836;SHT30;52595;51.608;7.216;2023-02-28T16:09:02;11.38;41.96
65836;SHT30;52595;51.608;7.216;2023-02-28T16:11:28;11.12;42.10
65836;SHT30;52595;51.608;7.216;2023-02-28T16:13:55;10.68;43.09
65836;SHT30;52595;51.608;7.216;2023-02-28T16:16:23;11.00;42.56
65836;SHT30;52595;51.608;7.216;2023-02-28T16:18:49;10.88;43.24
65836;SHT30;52595;51.608;7.216;2023-02-28T16:21:15;10.05;45.04
65836;SHT30;52595;51.608;7.216;2023-02-28T16:23:41;10.42;44.85
65836;SHT30;52595;51.608;7.216;2023-02-28T16:26:07;10.32;44.52
65836;SHT30;52595;51.608;7.216;2023-02-28T16:28:35;9.48;45.97
65836;SHT30;52595;51.608;7.216;2023-02-28T16:31:03;7.52;50.44
65836;SHT30;52595;51.608;7.216;2023-02-28T16:33:30;6.40;52.92
65836;SHT30;52595;51.608;7.216;2023-02-28T16:35:56;5.99;54.55
65836;SHT30;52595;51.608;7.216;2023-02-28T16:38:22;5.71;55.00
65836;SHT30;52595;51.608;7.216;2023-02-28T16:40:50;5.51;56.21
65836;SHT30;52595;51.608;7.216;2023-02-28T16:43:18;5.28;56.95
65836;SHT30;52595;51.608;7.216;2023-02-28T16:45:46;5.08;57.47
65836;SHT30;52595;51.608;7.216;2023-02-28T16:48:13;4.87;57.86
65836;SHT30;52595;51.608;7.216;2023-02-28T16:50:39;4.80;58.54
65836;SHT30;52595;51.608;7.216;2023-02-28T16:53:05;4.63;58.56
65836;SHT30;52595;51.608;7.216;2023-02-28T16:55:30;4.53;59.18
65836;SHT30;52595;51.608;7.216;2023-02-28T16:57:59;4.36;59.40
65836;SHT30;52595;51.608;7.216;2023-02-28T17:00:26;4.23;60.24
65836;SHT30;52595;51.608;7.216;2023-02-28T17:02:52;4.11;60.82
65836;SHT30;52595;51.608;7.216;2023-02-28T17:05:18;3.97;60.92
65836;SHT30;52595;51.608;7.216;2023-02-28T17:07:45;3.88;61.64
65836;SHT30;52595;51.608;7.216;2023-02-28T17:10:21;3.77;62.06
65836;SHT30;52595;51.608;7.216;2023-02-28T17:12:47;3.66;62.31
65836;SHT30;52595;51.608;7.216;2023-02-28T17:15:13;3.51;62.40
65836;SHT30;52595;51.608;7.216;2023-02-28T17:17:40;3.48;62.93
65836;SHT30;52595;51.608;7.216;2023-02-28T17:20:09;3.36;62.86
65836;SHT30;52595;51.608;7.216;2023-02-28T17:22:36;3.26;63.59
65836;SHT30;52595;51.608;7.216;2023-02-28T17:25:01;3.13;63.74
65836;SHT30;52595;51.608;7.216;2023-02-28T17:27:27;2.97;64.56
65836;SHT30;52595;51.608;7.216;2023-02-28T17:29:52;2.89;64.90
65836;SHT30;52595;51.608;7.216;2023-02-28T17:32:18;2.86;64.93
65836;SHT30;52595;51.608;7.216;2023-02-28T17:34:44;2.75;65.48
65836;SHT30;52595;51.608;7.216;2023-02-28T17:37:11;2.75;65.39
65836;SHT30;52595;51.608;7.216;2023-02-28T17:39:36;2.63;65.90
65836;SHT30;52595;51.608;7.216;2023-02-28T17:42:01;2.52;66.73
65836;SHT30;52595;51.608;7.216;2023-02-28T17:44:27;2.46;66.61
65836;SHT30;52595;51.608;7.216;2023-02-28T17:46:54;2.44;67.13
65836;SHT30;52595;51.608;7.216;2023-02-28T17:49:20;2.39;66.88
65836;SHT30;52595;51.608;7.216;2023-02-28T17:51:46;2.35;67.42
65836;SHT30;52595;51.608;7.216;2023-02-28T17:54:12;2.22;67.88
65836;SHT30;52595;51.608;7.216;2023-02-28T17:56:39;2.18;67.97
65836;SHT30;52595;51.608;7.216;2023-02-28T17:59:04;2.13;67.93
65836;SHT30;52595;51.608;7.216;2023-02-28T18:01:30;2.15;68.24
65836;SHT30;52595;51.608;7.216;2023-02-28T18:03:55;2.03;68.57
65836;SHT30;52595;51.608;7.216;2023-02-28T18:06:23;1.93;69.19
65836;SHT30;52595;51.608;7.216;2023-02-28T18:08:50;1.78;69.79
65836;SHT30;52595;51.608;7.216;2023-02-28T18:11:19;1.68;70.13